TFN weather

Tenerife Norte Airport
Tenerife Island, Canary Islands, Spain

Public forecast

Using degrees Celsius for public forecast. Weather courtesy of forecast.io.

Current aviation weather report (METAR) for Tenerife Norte Airport

Retrieved 2019/10/14 15:30 UTC (0 seconds ago):

GCXO 141530Z 31014KT 290V360 9999 FEW012 21/12 Q1022 NOSIG

Aviation forecast (TAF) for Tenerife Norte Airport

Retrieved 2019/10/14 15:27 UTC (0 seconds ago):

TAF GCXO 141400Z 1415/1515 32010KT 9999 SCT010 TX23/1514Z TN16/1505Z PROB30 TEMPO 1415/1418 BKN010 TEMPO 1423/1509 11005KT PROB30 TEMPO 1503/1509 1500 BCFG BKN003